Time;durP1;ratioP1;P1;durP2;ratioP2;P2;SDS_P1;SDS_P2;PMS_P1;PMS_P2;Temp;Humidity;BMP_temperature;BMP_pressure;BME280_temperature;BME280_humidity;BME280_pressure;Samples;Min_cycle;Max_cycle;Signal;HPM_P1;HPM_P2
2022/05/15 00:01:23;;;;;;;17.77;4.38;;;;;;;9.12;78.11;100650.16;5085318;28;20031;-70
2022/05/15 00:03:49;;;;;;;12.80;3.75;;;;;;;9.10;78.23;100643.28;5085234;28;20021;-70
2022/05/15 00:06:15;;;;;;;15.25;3.80;;;;;;;9.14;78.02;100653.63;5084907;28;20084;-70
2022/05/15 00:08:40;;;;;;;25.92;5.25;;;;;;;9.15;77.96;100657.94;5085262;28;20024;-69
2022/05/15 00:11:11;;;;;;;19.02;3.78;;;;;;;9.17;77.80;100666.59;5085236;28;20013;-69
2022/05/15 00:13:38;;;;;;;17.80;5.40;;;;;;;9.15;77.69;100655.34;5084637;28;20050;-70
2022/05/15 00:16:03;;;;;;;17.63;4.10;;;;;;;9.15;77.55;100657.94;5084668;28;20024;-68
2022/05/15 00:18:29;;;;;;;19.23;3.55;;;;;;;9.19;77.52;100658.81;5084981;28;20107;-69
2022/05/15 00:20:55;;;;;;;21.25;4.13;;;;;;;9.15;77.36;100655.34;5084635;28;20048;-69
2022/05/15 00:23:22;;;;;;;27.02;4.80;;;;;;;9.16;77.63;100659.69;5084941;28;20028;-69
2022/05/15 00:25:48;;;;;;;14.05;3.50;;;;;;;9.16;77.50;100667.47;5085020;28;20114;-69
2022/05/15 00:28:14;;;;;;;19.58;4.88;;;;;;;9.14;77.77;100671.75;5084280;28;20069;-69
2022/05/15 00:30:39;;;;;;;18.50;5.32;;;;;;;9.09;77.44;100673.47;5085035;28;20128;-68
2022/05/15 00:33:06;;;;;;;20.13;4.00;;;;;;;9.09;77.58;100675.22;5084817;28;20060;-69
2022/05/15 00:35:35;;;;;;;18.67;3.85;;;;;;;9.09;77.82;100673.47;5084522;28;20024;-69
2022/05/15 00:38:00;;;;;;;15.85;3.55;;;;;;;9.07;77.72;100664.84;5084111;28;20100;-69
2022/05/15 00:40:26;;;;;;;16.30;4.70;;;;;;;9.15;77.59;100672.63;5084714;28;20040;-68
2022/05/15 00:42:51;;;;;;;21.63;4.65;;;;;;;9.13;77.64;100677.81;5065754;28;20058;-68
2022/05/15 00:45:20;;;;;;;18.05;4.82;;;;;;;9.11;77.50;100674.34;5084255;28;20024;-68
2022/05/15 00:47:46;;;;;;;12.20;3.75;;;;;;;9.12;77.61;100675.22;5083971;28;20028;-69
2022/05/15 00:50:16;;;;;;;16.45;4.30;;;;;;;9.11;77.43;100671.75;5084366;28;20025;-69
2022/05/15 00:52:45;;;;;;;15.05;3.42;;;;;;;9.09;77.65;100672.63;5084289;28;20026;-69
2022/05/15 00:55:16;;;;;;;15.43;5.40;;;;;;;9.10;77.78;100669.16;5084421;28;20165;-69
2022/05/15 00:57:49;;;;;;;16.00;3.17;;;;;;;9.04;78.07;100664.84;5083877;28;20048;-69
2022/05/15 01:00:17;;;;;;;13.15;3.35;;;;;;;9.03;78.19;100683.81;5084302;28;20484;-69
2022/05/15 01:02:51;;;;;;;13.68;3.90;;;;;;;9.02;78.20;100684.69;5083714;28;20515;-69
2022/05/15 01:05:17;;;;;;;18.75;4.75;;;;;;;9.02;78.14;100687.28;5084220;28;20020;-69
2022/05/15 01:07:43;;;;;;;13.18;3.40;;;;;;;8.99;78.07;100684.69;5084021;28;20024;-70
2022/05/15 01:10:10;;;;;;;11.30;3.42;;;;;;;9.03;77.86;100699.38;5084346;28;20099;-70
2022/05/15 01:12:40;;;;;;;16.83;3.53;;;;;;;9.04;78.04;100693.34;5083833;28;20035;-70
2022/05/15 01:15:08;;;;;;;14.73;3.40;;;;;;;9.07;78.05;100695.06;5084119;28;20032;-69
2022/05/15 01:17:33;;;;;;;13.60;3.55;;;;;;;9.07;78.04;100697.66;5083728;28;20052;-69
2022/05/15 01:20:13;;;;;;;14.82;3.75;;;;;;;9.05;77.94;100693.34;5083823;28;20024;-69
2022/05/15 01:22:38;;;;;;;13.73;3.72;;;;;;;9.05;77.81;100687.28;5083583;28;20044;-69
2022/05/15 01:25:10;;;;;;;13.85;3.85;;;;;;;9.04;77.96;100690.75;5083623;28;20028;-69
2022/05/15 01:27:36;;;;;;;16.05;3.80;;;;;;;9.04;77.84;100698.53;5083337;28;20028;-68
2022/05/15 01:30:02;;;;;;;18.05;4.95;;;;;;;9.01;78.09;100709.72;5065418;28;20140;-68
2022/05/15 01:32:27;;;;;;;23.05;5.40;;;;;;;9.02;78.14;100698.53;5083384;28;20107;-69
2022/05/15 01:34:52;;;;;;;20.98;3.90;;;;;;;9.03;78.10;100701.97;5065715;28;20534;-69
2022/05/15 01:37:17;;;;;;;17.70;3.75;;;;;;;9.04;78.05;100711.47;5083158;28;20024;-69
2022/05/15 01:39:43;;;;;;;18.83;4.60;;;;;;;9.03;78.14;100704.53;5083410;28;20147;-70
2022/05/15 01:42:09;;;;;;;14.25;3.88;;;;;;;8.99;78.19;100698.50;5083192;28;20028;-68
2022/05/15 01:44:34;;;;;;;17.80;4.18;;;;;;;8.98;78.10;100701.94;5083590;28;20016;-69
2022/05/15 01:46:59;;;;;;;15.32;3.88;;;;;;;8.99;78.18;100713.19;5083198;28;20031;-68
2022/05/15 01:49:25;;;;;;;13.82;3.88;;;;;;;8.95;78.33;100714.88;5083302;28;20028;-69
2022/05/15 01:51:51;;;;;;;15.38;3.35;;;;;;;8.96;78.14;100715.75;5083213;28;20025;-70
2022/05/15 01:54:16;;;;;;;19.80;3.97;;;;;;;8.94;78.22;100720.94;5083353;28;20029;-70
2022/05/15 01:56:42;;;;;;;19.73;3.67;;;;;;;8.91;78.32;100721.75;5082723;28;20032;-69
2022/05/15 01:59:08;;;;;;;16.02;3.60;;;;;;;8.91;78.26;100697.63;5082825;28;20031;-69
2022/05/15 02:01:34;;;;;;;15.82;3.53;;;;;;;8.93;78.28;100721.78;5082833;28;20017;-68
2022/05/15 02:04:00;;;;;;;16.27;3.08;;;;;;;8.92;78.23;100723.50;5082787;28;20038;-69
2022/05/15 02:06:26;;;;;;;18.25;4.57;;;;;;;8.93;78.16;100725.25;5083090;28;20052;-70
2022/05/15 02:08:51;;;;;;;10.98;3.50;;;;;;;8.93;78.21;100730.41;5082990;28;20071;-69
2022/05/15 02:11:17;;;;;;;14.93;4.72;;;;;;;8.95;77.96;100737.31;5083113;28;20024;-70
2022/05/15 02:13:42;;;;;;;19.95;3.83;;;;;;;8.95;77.91;100742.50;5082775;28;20024;-70
2022/05/15 02:16:08;;;;;;;20.83;4.13;;;;;;;8.87;78.01;100730.41;5083037;28;20020;-68
2022/05/15 02:18:33;;;;;;;19.92;3.95;;;;;;;8.90;77.96;100740.75;5083030;28;20035;-69
2022/05/15 02:20:59;;;;;;;15.98;3.88;;;;;;;8.88;77.66;100737.28;5082617;28;20029;-69
2022/05/15 02:23:26;;;;;;;13.18;3.30;;;;;;;8.89;77.63;100744.22;5082749;28;20048;-69
2022/05/15 02:25:52;;;;;;;11.93;3.42;;;;;;;8.87;77.54;100738.16;5082778;28;20024;-69
2022/05/15 02:28:17;;;;;;;15.68;3.60;;;;;;;8.85;77.53;100747.63;5082453;28;20429;-69
2022/05/15 02:30:43;;;;;;;14.52;3.72;;;;;;;8.80;77.34;100739.00;5082701;28;20044;-68
2022/05/15 02:33:08;;;;;;;16.52;3.63;;;;;;;8.82;77.59;100746.78;5082650;28;20017;-69
2022/05/15 02:35:33;;;;;;;19.70;4.47;;;;;;;8.82;77.41;100752.81;5082736;28;20021;-69
2022/05/15 02:37:59;;;;;;;15.88;3.30;;;;;;;8.79;77.35;100747.63;5082149;28;20120;-68
2022/05/15 02:40:25;;;;;;;22.92;3.95;;;;;;;8.77;77.51;100760.56;5064446;28;20028;-69
2022/05/15 02:42:54;;;;;;;16.17;3.42;;;;;;;8.80;77.51;100764.91;5082229;28;20021;-69
2022/05/15 02:45:19;;;;;;;13.80;4.07;;;;;;;8.80;77.52;100760.56;5082406;28;20025;-70
2022/05/15 02:47:45;;;;;;;12.40;3.70;;;;;;;8.76;77.43;100757.97;5082131;28;20135;-70
2022/05/15 02:52:55;;;;;;;32.58;4.88;;;;;;;8.81;77.44;100761.44;5082463;28;20032;-70
2022/05/15 02:55:22;;;;;;;16.40;3.72;;;;;;;8.80;77.70;100765.75;5082385;28;20029;-69
2022/05/15 02:57:48;;;;;;;21.35;3.70;;;;;;;8.82;77.63;100770.09;5081636;28;20093;-68
2022/05/15 03:00:15;;;;;;;16.58;3.70;;;;;;;8.83;77.70;100774.41;5082374;28;20013;-68
2022/05/15 03:02:41;;;;;;;20.15;3.97;;;;;;;8.82;77.68;100773.50;5082349;28;20323;-69
2022/05/15 03:05:09;;;;;;;14.93;3.80;;;;;;;8.87;77.46;100786.47;5082231;28;20076;-68
2022/05/15 03:07:36;;;;;;;11.48;3.15;;;;;;;8.86;77.52;100783.06;5083041;28;20025;-68
2022/05/15 03:10:03;;;;;;;10.48;2.97;;;;;;;8.96;77.70;100790.84;5086198;28;20051;-68
2022/05/15 03:12:28;;;;;;;15.93;3.40;;;;;;;9.15;77.82;100790.06;5086170;28;20021;-68
2022/05/15 03:14:53;;;;;;;15.48;3.28;;;;;;;9.38;78.21;100784.09;5086335;28;20028;-68
2022/05/15 03:17:19;;;;;;;11.73;2.75;;;;;;;9.69;78.44;100783.28;5086038;28;20028;-68
2022/05/15 03:19:45;;;;;;;20.83;3.92;;;;;;;10.02;78.70;100786.75;5086065;28;20218;-69
2022/05/15 03:22:10;;;;;;;18.73;3.55;;;;;;;10.34;78.72;100787.59;5085783;28;20412;-69
2022/05/15 03:24:36;;;;;;;20.02;3.30;;;;;;;10.77;78.80;100797.06;5085890;28;20047;-69
2022/05/15 03:27:01;;;;;;;12.70;3.45;;;;;;;11.19;78.33;100797.78;5085578;28;20096;-68
2022/05/15 03:29:28;;;;;;;10.95;2.60;;;;;;;11.57;77.43;100794.09;5085753;28;20221;-68
2022/05/15 03:31:54;;;;;;;16.10;3.42;;;;;;;11.87;76.67;100788.69;5085622;28;20095;-69
2022/05/15 03:34:20;;;;;;;12.10;2.83;;;;;;;12.27;76.02;100792.72;5085700;28;20020;-69
2022/05/15 03:36:47;;;;;;;9.90;3.00;;;;;;;12.69;75.04;100794.91;5085497;28;20055;-69
2022/05/15 03:39:13;;;;;;;11.50;2.28;;;;;;;13.01;73.88;100793.69;5085568;28;20052;-69
2022/05/15 03:41:39;;;;;;;9.90;2.33;;;;;;;13.42;73.29;100789.69;5085620;28;20109;-69
2022/05/15 03:44:05;;;;;;;11.05;2.97;;;;;;;13.86;71.53;100796.03;5085228;28;20484;-69
2022/05/15 03:46:30;;;;;;;12.13;2.72;;;;;;;14.28;70.22;100807.50;5085513;28;20039;-69
2022/05/15 03:48:58;;;;;;;14.35;3.65;;;;;;;14.58;68.03;100813.09;5085568;28;20035;-69
2022/05/15 03:51:23;;;;;;;12.57;3.45;;;;;;;15.09;67.84;100808.63;5085478;28;20440;-69
2022/05/15 03:53:48;;;;;;;13.73;2.58;;;;;;;15.57;66.52;100806.72;5085375;28;20027;-69
2022/05/15 03:56:14;;;;;;;11.85;2.45;;;;;;;15.95;63.85;100811.06;5085075;28;20028;-69
2022/05/15 03:58:40;;;;;;;12.50;2.58;;;;;;;16.50;62.54;100810.59;5085173;28;20024;-69
2022/05/15 04:01:06;;;;;;;7.05;2.53;;;;;;;16.94;60.65;100819.88;5085047;28;20055;-69
2022/05/15 04:03:32;;;;;;;11.63;2.83;;;;;;;17.22;59.06;100809.47;5085124;28;20059;-71
2022/05/15 04:05:57;;;;;;;7.95;2.45;;;;;;;17.74;58.18;100815.78;5085386;28;20028;-71
2022/05/15 04:08:24;;;;;;;9.85;2.45;;;;;;;17.99;55.24;100809.72;5085125;28;20024;-70
2022/05/15 04:10:49;;;;;;;9.25;2.47;;;;;;;18.47;54.41;100827.47;5085274;28;20020;-70
2022/05/15 04:13:14;;;;;;;10.27;3.03;;;;;;;18.75;53.46;100822.06;5084920;28;20039;-70
2022/05/15 04:15:40;;;;;;;12.10;2.65;;;;;;;18.80;51.84;100822.75;5085057;28;20059;-69
2022/05/15 04:18:06;;;;;;;10.05;3.22;;;;;;;19.26;51.28;100824.63;5084417;28;20029;-69
2022/05/15 04:20:33;;;;;;;10.40;2.95;;;;;;;19.53;48.91;100827.09;5085270;28;20211;-69
2022/05/15 04:22:58;;;;;;;11.40;2.53;;;;;;;19.94;48.47;100833.38;5084861;28;20469;-69
2022/05/15 04:25:24;;;;;;;8.40;3.17;;;;;;;20.26;47.43;100832.97;5084697;28;20039;-69
2022/05/15 04:27:50;;;;;;;7.82;2.78;;;;;;;20.59;46.38;100834.25;5084397;28;20449;-69
2022/05/15 04:30:18;;;;;;;5.72;1.75;;;;;;;20.90;45.47;100830.22;5084865;28;20082;-69
2022/05/15 04:32:44;;;;;;;6.82;2.50;;;;;;;21.21;44.43;100833.28;5084574;28;20025;-69
2022/05/15 04:35:10;;;;;;;8.27;2.33;;;;;;;21.34;43.42;100844.13;5084865;28;20051;-69
2022/05/15 04:37:39;;;;;;;7.90;2.60;;;;;;;21.62;42.73;100848.06;5084187;28;20045;-69
2022/05/15 04:40:05;;;;;;;10.18;2.60;;;;;;;21.86;41.76;100851.34;5084710;28;20037;-71
2022/05/15 04:42:31;;;;;;;11.02;2.67;;;;;;;22.00;41.03;100858.59;5084359;28;20036;-69
2022/05/15 04:44:56;;;;;;;7.78;2.92;;;;;;;22.21;40.48;100862.88;5084399;28;20024;-69
2022/05/15 04:47:21;;;;;;;7.22;2.40;;;;;;;22.21;39.68;100865.50;5084301;28;20075;-69
2022/05/15 04:49:46;;;;;;;9.40;2.22;;;;;;;22.43;39.39;100862.63;5084209;28;20028;-69
2022/05/15 04:52:12;;;;;;;6.13;2.17;;;;;;;22.47;38.89;100860.69;5084194;28;20397;-69
2022/05/15 04:54:37;;;;;;;7.25;2.17;;;;;;;22.54;38.17;100867.38;5084429;28;20071;-68
2022/05/15 04:57:04;;;;;;;8.57;2.20;;;;;;;22.72;38.32;100860.31;5084066;28;20066;-68
2022/05/15 04:59:29;;;;;;;11.80;2.65;;;;;;;22.96;37.88;100867.88;5084318;28;20030;-70
2022/05/15 05:01:55;;;;;;;7.22;2.50;;;;;;;23.13;36.88;100871.41;5084440;28;20052;-66
2022/05/15 05:04:21;;;;;;;10.50;2.53;;;;;;;22.92;36.68;100874.28;5084238;28;20073;-66
2022/05/15 05:06:47;;;;;;;6.22;1.85;;;;;;;23.00;36.18;100864.13;5084030;28;20046;-66
2022/05/15 05:09:12;;;;;;;9.32;1.85;;;;;;;23.20;35.84;100869.25;5084099;28;20103;-66
2022/05/15 05:11:38;;;;;;;8.00;2.40;;;;;;;23.40;35.67;100865.56;5084101;28;20031;-67
2022/05/15 05:14:03;;;;;;;5.60;1.75;;;;;;;23.51;35.27;100876.41;5083721;28;20024;-66
2022/05/15 05:16:30;;;;;;;9.13;2.20;;;;;;;23.38;34.20;100868.31;5084006;28;20020;-65
2022/05/15 05:18:56;;;;;;;6.40;1.98;;;;;;;23.48;34.42;100868.63;5084116;28;20050;-70
2022/05/15 05:21:21;;;;;;;6.97;2.10;;;;;;;23.71;33.62;100870.91;5083826;28;20032;-73
2022/05/15 05:23:47;;;;;;;6.55;1.90;;;;;;;23.56;33.78;100876.16;5083783;28;20020;-74
2022/05/15 05:26:12;;;;;;;8.43;2.10;;;;;;;23.98;33.84;100876.44;5083793;28;20050;-73
2022/05/15 05:28:37;;;;;;;5.35;1.80;;;;;;;24.41;33.49;100866.09;5065551;28;20357;-74
2022/05/15 05:31:03;;;;;;;6.80;1.92;;;;;;;24.59;33.04;100875.59;5083211;28;20055;-73
2022/05/15 05:33:28;;;;;;;6.18;1.70;;;;;;;24.47;32.59;100871.84;5083788;28;20580;-74
2022/05/15 05:35:53;;;;;;;8.07;1.98;;;;;;;24.79;31.85;100875.31;5083829;28;20464;-74
2022/05/15 05:38:19;;;;;;;7.28;1.52;;;;;;;24.87;31.70;100867.75;5083371;28;20044;-74
2022/05/15 05:40:44;;;;;;;9.85;2.35;;;;;;;25.08;31.37;100883.31;5083681;28;20032;-74
2022/05/15 05:43:10;;;;;;;4.97;1.83;;;;;;;25.11;31.18;100883.13;5083358;28;20029;-74
2022/05/15 05:45:35;;;;;;;6.18;1.80;;;;;;;25.20;31.02;100887.00;5083812;28;20451;-73
2022/05/15 05:48:01;;;;;;;7.10;2.20;;;;;;;25.29;30.76;100883.75;5083451;28;20020;-74
2022/05/15 05:50:27;;;;;;;5.82;1.98;;;;;;;25.49;30.64;100889.59;5083649;28;20028;-73
2022/05/15 05:52:54;;;;;;;7.35;2.15;;;;;;;25.31;30.44;100887.16;5083580;28;20027;-73
2022/05/15 05:55:20;;;;;;;8.52;1.80;;;;;;;25.35;30.17;100888.66;5083485;28;20070;-74
2022/05/15 05:57:46;;;;;;;6.07;1.95;;;;;;;25.49;29.84;100879.84;5082886;28;20020;-74
2022/05/15 06:00:21;;;;;;;8.25;2.15;;;;;;;25.48;30.73;100887.91;5083321;28;20119;-74
2022/05/15 06:02:46;;;;;;;8.15;2.05;;;;;;;25.60;30.12;100891.56;5083352;28;20024;-74
2022/05/15 06:05:12;;;;;;;6.50;1.88;;;;;;;25.44;29.84;100897.00;5083247;28;20085;-74
2022/05/15 06:07:37;;;;;;;7.60;2.47;;;;;;;25.45;30.41;100893.38;5083142;28;20024;-74
2022/05/15 06:10:09;;;;;;;9.07;2.30;;;;;;;25.47;29.73;100889.69;5083006;28;20107;-74
2022/05/15 06:12:34;;;;;;;6.90;1.55;;;;;;;25.50;29.42;100897.47;5082735;28;20090;-74
2022/05/15 06:14:59;;;;;;;7.55;2.20;;;;;;;25.58;29.59;100898.78;5083164;28;20501;-74
2022/05/15 06:17:28;;;;;;;5.28;1.70;;;;;;;25.41;29.00;100898.06;5083220;28;20557;-74
2022/05/15 06:19:54;;;;;;;7.47;1.60;;;;;;;25.37;29.35;100904.50;5082977;28;20031;-74
2022/05/15 06:22:19;;;;;;;6.18;1.88;;;;;;;25.71;29.09;100902.41;5064805;28;20021;-74
2022/05/15 06:24:45;;;;;;;7.60;2.00;;;;;;;25.70;29.21;100895.34;5083060;28;20082;-75
2022/05/15 06:27:11;;;;;;;7.18;2.20;;;;;;;25.66;28.45;100890.34;5082693;28;20050;-74
2022/05/15 06:29:41;;;;;;;3.90;1.77;;;;;;;25.55;28.86;100888.34;5082933;28;20035;-74
2022/05/15 06:32:07;;;;;;;6.10;2.17;;;;;;;25.58;28.87;100896.97;5083194;28;20025;-74
2022/05/15 06:34:33;;;;;;;5.38;1.67;;;;;;;25.66;28.88;100895.66;5083095;28;20027;-74
2022/05/15 06:36:59;;;;;;;7.22;1.83;;;;;;;25.70;28.52;100908.66;5082885;28;20139;-73
2022/05/15 06:39:24;;;;;;;5.13;1.60;;;;;;;25.63;28.49;100902.03;5082694;28;20052;-73
2022/05/15 06:41:50;;;;;;;4.82;1.88;;;;;;;25.78;28.02;100905.50;5082612;28;20051;-72
2022/05/15 06:44:19;;;;;;;5.85;1.58;;;;;;;25.58;28.09;100915.59;5082771;28;20044;-73
2022/05/15 06:46:45;;;;;;;7.03;2.00;;;;;;;25.56;28.57;100916.66;5082864;28;20032;-73
2022/05/15 06:49:11;;;;;;;8.90;1.95;;;;;;;25.59;28.71;100922.59;5082760;28;20016;-73
2022/05/15 06:51:36;;;;;;;6.38;1.70;;;;;;;25.78;27.97;100926.78;5082769;28;20020;-73
2022/05/15 06:54:02;;;;;;;5.90;1.38;;;;;;;26.11;27.75;100917.53;5082681;28;20040;-74
2022/05/15 06:59:11;;;;;;;6.32;2.22;;;;;;;26.07;27.26;100923.16;5081979;28;20505;-73
2022/05/15 07:01:36;;;;;;;5.20;1.77;;;;;;;26.06;26.90;100921.44;5082721;28;20028;-73
2022/05/15 07:04:02;;;;;;;7.40;1.75;;;;;;;26.24;26.67;100917.56;5082102;28;20045;-67
2022/05/15 07:06:28;;;;;;;5.32;1.55;;;;;;;26.39;26.93;100920.16;5082209;28;20096;-74
2022/05/15 07:08:54;;;;;;;5.93;1.40;;;;;;;26.30;26.98;100912.78;5082275;28;20016;-75
2022/05/15 07:11:19;;;;;;;8.27;1.65;;;;;;;26.35;27.16;100926.66;5082170;28;20016;-76
2022/05/15 07:13:45;;;;;;;3.80;1.55;;;;;;;26.33;26.54;100926.75;5063610;28;20021;-68
2022/05/15 07:16:11;;;;;;;7.88;2.00;;;;;;;26.38;26.70;100917.59;5081888;28;20089;-64
2022/05/15 07:18:37;;;;;;;6.03;1.80;;;;;;;26.13;26.65;100925.41;5081909;28;20021;-65
2022/05/15 07:21:03;;;;;;;4.05;1.27;;;;;;;26.10;26.26;100933.59;5081830;28;20016;-65
2022/05/15 07:23:30;;;;;;;6.60;1.83;;;;;;;26.05;26.62;100933.03;5082384;28;20024;-62
2022/05/15 07:25:55;;;;;;;5.60;1.48;;;;;;;26.24;26.27;100938.00;5082209;28;20020;-70
2022/05/15 07:28:21;;;;;;;5.47;1.58;;;;;;;26.40;25.48;100943.19;5081756;28;20024;-68
2022/05/15 07:30:48;;;;;;;5.38;1.73;;;;;;;25.88;26.01;100940.31;5082261;28;20043;-69
2022/05/15 07:33:17;;;;;;;5.47;1.30;;;;;;;25.42;26.80;100939.63;5081948;28;20033;-69
2022/05/15 07:35:42;;;;;;;7.22;1.88;;;;;;;25.21;27.35;100942.69;5082367;28;20052;-66
2022/05/15 07:38:07;;;;;;;5.57;1.80;;;;;;;25.00;27.59;100945.72;5081687;28;20461;-64
2022/05/15 07:40:33;;;;;;;5.45;1.48;;;;;;;24.94;27.98;100947.88;5081849;28;20028;-65
2022/05/15 07:42:58;;;;;;;6.43;2.03;;;;;;;25.18;27.79;100955.28;5081713;28;20088;-68
2022/05/15 07:45:23;;;;;;;6.18;1.55;;;;;;;25.54;27.67;100945.13;5082382;28;20025;-61
2022/05/15 07:47:49;;;;;;;2.90;1.27;;;;;;;25.91;26.31;100947.25;5081969;28;20021;-63
2022/05/15 07:50:15;;;;;;;6.70;1.98;;;;;;;26.16;25.90;100950.94;5082197;28;20050;-63
2022/05/15 07:52:40;;;;;;;6.35;1.50;;;;;;;26.55;25.83;100954.59;5082102;28;20113;-68
2022/05/15 07:55:06;;;;;;;7.00;1.67;;;;;;;26.76;25.44;100953.25;5085097;28;20025;-69
2022/05/15 07:57:34;;;;;;;6.35;1.60;;;;;;;26.60;24.97;100946.28;5084973;28;20027;-65
2022/05/15 08:00:00;;;;;;;5.78;1.92;;;;;;;26.22;25.17;100956.72;5085356;28;20023;-65
2022/05/15 08:02:26;;;;;;;5.47;1.55;;;;;;;26.13;25.48;100960.00;5085364;28;20020;-68
2022/05/15 08:10:19;;;;;;;4.72;1.10;;;;;;;26.13;25.39;100973.31;5086155;28;20055;-66
2022/05/15 08:12:44;;;;;;;5.47;1.30;;;;;;;26.46;24.97;100972.03;5085562;28;20024;-67
2022/05/15 08:15:10;;;;;;;3.35;1.17;;;;;;;26.79;24.57;100982.31;5085507;28;20470;-66
2022/05/15 08:17:35;;;;;;;2.97;1.30;;;;;;;26.72;23.94;100985.41;5085289;28;20017;-67
2022/05/15 08:25:28;;;;;;;3.38;1.15;;;;;;;26.33;24.16;100995.09;5085737;28;20058;-65
2022/05/15 08:27:54;;;;;;;4.50;1.30;;;;;;;26.44;23.89;100997.91;5085341;28;20060;-66
2022/05/15 08:30:20;;;;;;;6.35;1.77;;;;;;;26.55;23.80;100991.03;5085300;28;20084;-67
2022/05/15 08:32:46;;;;;;;4.57;1.02;;;;;;;26.71;23.03;100997.00;5085386;28;20063;-65
2022/05/15 08:35:12;;;;;;;5.72;1.13;;;;;;;26.57;22.88;101002.41;5084687;28;20025;-68
2022/05/15 08:37:38;;;;;;;5.80;1.00;;;;;;;26.42;23.32;101002.47;5084305;28;20053;-70
2022/05/15 08:40:04;;;;;;;5.28;1.25;;;;;;;26.47;23.11;101007.50;5084887;28;20028;-66
2022/05/15 08:42:38;;;;;;;5.35;1.23;;;;;;;26.67;23.24;101008.81;5066521;28;20028;-65
2022/05/15 08:45:11;;;;;;;2.45;0.90;;;;;;;27.07;22.28;101007.06;5084680;28;20060;-65
2022/05/15 08:47:41;;;;;;;4.68;1.20;;;;;;;27.17;21.48;101008.16;5084816;28;20052;-65
2022/05/15 08:50:18;;;;;;;2.58;0.85;;;;;;;27.18;20.72;101012.53;5084942;28;20020;-66
2022/05/15 08:52:48;;;;;;;2.88;0.75;;;;;;;26.97;21.34;101009.50;5084929;28;20440;-67
2022/05/15 08:55:24;;;;;;;3.80;0.57;;;;;;;26.97;21.71;101002.34;5085080;28;20028;-67
2022/05/15 08:58:00;;;;;;;1.45;0.95;;;;;;;27.37;21.08;101007.69;5084571;28;20028;-67
2022/05/15 09:00:28;;;;;;;1.50;0.65;;;;;;;27.70;20.58;101014.31;5084758;28;20055;-66
2022/05/15 09:02:59;;;;;;;1.35;0.60;;;;;;;27.92;19.10;101005.59;5084503;28;20100;-68
2022/05/15 09:05:29;;;;;;;3.00;0.70;;;;;;;27.88;20.15;101014.75;5083702;28;20067;-73
2022/05/15 09:08:25;;;;;;;1.95;0.70;;;;;;;28.14;19.72;101017.34;5066258;28;20044;-65
2022/05/15 09:11:01;;;;;;;1.65;0.50;;;;;;;28.56;19.31;101019.59;5066588;28;20017;-65
2022/05/15 09:13:36;;;;;;;1.33;0.50;;;;;;;28.76;18.61;101016.38;5084154;28;20036;-70
2022/05/15 09:16:10;;;;;;;3.60;0.63;;;;;;;28.71;18.28;101016.75;5084595;28;20033;-70
2022/05/15 09:18:37;;;;;;;1.10;0.57;;;;;;;28.82;18.74;101008.75;5084223;28;20036;-70
2022/05/15 09:21:14;;;;;;;1.65;0.60;;;;;;;28.90;18.83;101005.50;5084053;28;20074;-69
2022/05/15 09:23:39;;;;;;;2.72;0.60;;;;;;;28.91;18.96;101017.91;5084124;28;20017;-70
2022/05/15 09:26:28;;;;;;;2.40;0.70;;;;;;;29.10;18.98;101016.50;5065995;28;20036;-75
2022/05/15 09:29:01;;;;;;;1.17;0.68;;;;;;;29.32;18.72;101006.78;5083780;28;20051;-74
2022/05/15 09:31:40;;;;;;;2.63;0.52;;;;;;;29.19;18.39;101018.44;5084268;28;20020;-74
2022/05/15 09:34:07;;;;;;;2.15;0.70;;;;;;;29.22;18.46;101025.34;5084524;28;20103;-74
2022/05/15 09:36:35;;;;;;;2.60;0.63;;;;;;;29.22;17.83;101019.19;5083776;28;20048;-72
2022/05/15 09:39:18;;;;;;;2.15;0.60;;;;;;;29.10;18.77;101026.31;5083773;28;20056;-69
2022/05/15 09:44:40;;;;;;;1.17;0.50;;;;;;;29.39;17.98;101028.53;5083443;28;20047;-67
2022/05/15 09:47:24;;;;;;;2.70;0.60;;;;;;;29.56;18.11;101028.03;5083421;28;20032;-73
2022/05/15 09:49:50;;;;;;;1.88;0.60;;;;;;;29.58;18.14;101027.94;5083608;28;20071;-73
2022/05/15 09:52:38;;;;;;;2.85;0.70;;;;;;;29.69;17.75;101027.94;5083281;28;20519;-72
2022/05/15 09:55:09;;;;;;;2.70;0.70;;;;;;;29.52;18.60;101034.59;5083316;28;20566;-71
2022/05/15 09:57:35;;;;;;;;;;;;;;;29.23;19.03;101042.25;5083561;28;20037;-72
2022/05/15 10:00:07;;;;;;;2.75;0.60;;;;;;;29.50;18.49;101033.03;5083606;28;20432;-73
2022/05/15 10:02:42;;;;;;;8.30;0.85;;;;;;;29.43;19.14;101028.16;5083415;28;20044;-72
2022/05/15 10:05:16;;;;;;;4.40;0.70;;;;;;;29.27;18.78;101035.69;5083285;28;20396;-72
2022/05/15 10:07:50;;;;;;;3.47;0.77;;;;;;;28.60;19.09;101036.25;5083254;28;20020;-73
2022/05/15 10:10:34;;;;;;;2.03;0.88;;;;;;;28.24;20.13;101035.34;5083359;28;20020;-72
2022/05/15 10:13:09;;;;;;;2.70;0.60;;;;;;;28.05;20.05;101036.72;5083110;28;20023;-71
2022/05/15 10:15:44;;;;;;;3.10;0.90;;;;;;;28.08;19.60;101037.31;5083358;28;20364;-67
2022/05/15 10:18:25;;;;;;;3.13;1.00;;;;;;;27.44;19.90;101030.31;5082862;28;20164;-74
2022/05/15 10:20:52;;;;;;;1.30;0.57;;;;;;;27.15;20.07;101050.03;5083458;28;20109;-68
2022/05/15 10:23:27;;;;;;;2.33;0.75;;;;;;;26.78;20.55;101050.69;5065093;28;20017;-69
2022/05/15 10:26:04;;;;;;;0.75;0.38;;;;;;;26.26;20.47;101058.50;5083249;28;20027;-69
2022/05/15 10:28:45;;;;;;;3.10;0.68;;;;;;;25.75;20.98;101046.63;5064693;28;20028;-67
2022/05/15 10:31:45;;;;;;;2.92;0.70;;;;;;;25.79;21.97;101047.28;5083193;28;20526;-70
2022/05/15 10:34:14;;;;;;;3.72;0.60;;;;;;;25.88;22.17;101044.03;5083000;28;20024;-67
2022/05/15 10:37:03;;;;;;;1.42;0.60;;;;;;;26.16;21.43;101041.41;5083212;28;20032;-69
2022/05/15 10:40:07;;;;;;;1.60;0.73;;;;;;;26.40;20.67;101043.47;5082914;28;20044;-69
2022/05/15 10:42:58;;;;;;;4.72;0.55;;;;;;;25.78;21.09;101048.25;5082796;28;20032;-74
2022/05/15 10:45:32;;;;;;;1.23;0.45;;;;;;;25.68;21.22;101056.78;5083229;28;20046;-73
2022/05/15 10:48:10;;;;;;;3.38;0.60;;;;;;;25.66;21.02;101053.38;5082953;28;20028;-75
2022/05/15 10:51:03;;;;;;;0.77;0.40;;;;;;;25.79;21.29;101050.81;5083179;28;20061;-72
2022/05/15 10:59:54;;;;;;;3.67;0.82;;;;;;;24.00;23.13;101032.81;5082475;28;20031;-74
2022/05/15 11:02:45;;;;;;;3.75;0.95;;;;;;;23.23;23.41;101044.75;5082519;28;20025;-76
2022/05/15 11:05:48;;;;;;;4.05;0.60;;;;;;;22.46;24.48;101049.47;5082537;28;20025;-75
2022/05/15 11:08:19;;;;;;;4.05;0.70;;;;;;;21.86;25.30;101048.69;5000115;28;20102;-75
2022/05/15 11:10:56;;;;;;;6.50;1.50;;;;;;;21.32;25.63;101038.72;5000326;28;20022;-74
2022/05/15 11:13:54;;;;;;;11.68;1.23;;;;;;;21.07;26.29;101040.63;4999911;28;20038;-74
2022/05/15 11:16:52;;;;;;;1.52;0.50;;;;;;;20.79;26.73;101042.66;5000142;28;20057;-75
2022/05/15 11:19:17;;;;;;;1.92;0.70;;;;;;;20.41;27.47;101055.59;4989736;28;20372;-75
2022/05/15 11:22:01;;;;;;;10.07;0.80;;;;;;;19.90;28.09;101042.56;4999907;28;20058;-74
2022/05/15 11:24:47;;;;;;;4.68;1.40;;;;;;;19.51;28.84;101044.84;4999774;28;20201;-72
2022/05/15 11:27:19;;;;;;;1.30;0.50;;;;;;;19.16;28.78;101046.94;4999946;28;20026;-72
2022/05/15 11:29:49;;;;;;;3.50;1.05;;;;;;;18.67;29.41;101050.28;5002128;28;20026;-73
2022/05/15 11:32:27;;;;;;;2.80;0.85;;;;;;;18.45;30.21;101049.19;5003516;28;20435;-71
2022/05/15 11:35:28;;;;;;;1.17;0.50;;;;;;;18.26;30.28;101050.66;5003242;28;20030;-70
2022/05/15 11:37:56;;;;;;;2.85;0.68;;;;;;;18.15;30.63;101049.22;4972330;28;20186;-73
2022/05/15 11:40:40;;;;;;;1.10;0.45;;;;;;;17.92;30.51;101049.88;5003909;28;20036;-71
2022/05/15 11:43:31;;;;;;;2.63;0.85;;;;;;;17.75;30.93;101059.06;5003611;28;20094;-71
2022/05/15 11:46:04;;;;;;;3.10;0.60;;;;;;;17.62;31.35;101060.34;5085399;28;20071;-73
2022/05/15 11:48:53;;;;;;;0.90;0.40;;;;;;;17.43;30.66;101061.69;5085661;28;20125;-73
2022/05/15 11:51:29;;;;;;;1.67;0.52;;;;;;;17.32;31.46;101055.84;5085552;28;20033;-73
2022/05/15 11:54:02;;;;;;;2.28;0.70;;;;;;;17.29;31.66;101055.94;5085427;28;20039;-72
2022/05/15 11:56:41;;;;;;;3.28;0.50;;;;;;;17.37;32.10;101066.22;5085512;28;20407;-72
2022/05/15 11:59:15;;;;;;;2.00;0.63;;;;;;;17.31;32.19;101057.66;5085197;28;20025;-72